Time;durP1;ratioP1;P1;durP2;ratioP2;P2;SDS_P1;SDS_P2;PMS_P1;PMS_P2;Temp;Humidity;BMP_temperature;BMP_pressure;BME280_temperature;BME280_humidity;BME280_pressure;Samples;Min_cycle;Max_cycle;Signal;HPM_P1;HPM_P2
2024/03/03 00:01:33;;;;;;;45.10;22.97;;;;;;;5.28;100.00;99958.25;5053396;28;20434;-84
2024/03/03 00:04:07;;;;;;;46.20;23.50;;;;;;;5.32;100.00;99962.06;5076590;28;20427;-82
2024/03/03 00:06:35;;;;;;;46.63;23.00;;;;;;;5.30;100.00;99964.19;5058612;28;20422;-82
2024/03/03 00:09:09;;;;;;;40.85;22.02;;;;;;;5.32;100.00;99961.22;5058287;28;20431;-84
2024/03/03 00:11:42;;;;;;;45.88;23.00;;;;;;;5.42;100.00;99953.19;5058062;28;20434;-82
2024/03/03 00:14:15;;;;;;;45.22;22.98;;;;;;;5.38;100.00;99958.28;5065898;28;20437;-84
2024/03/03 00:16:44;;;;;;;41.72;23.00;;;;;;;5.35;100.00;99963.44;5060215;28;20426;-82
2024/03/03 00:19:14;;;;;;;42.55;22.58;;;;;;;5.36;100.00;99959.63;5078747;28;20869;-84
2024/03/03 00:21:42;;;;;;;46.78;22.67;;;;;;;5.31;100.00;99952.34;5078862;28;20411;-84
2024/03/03 00:24:16;;;;;;;47.63;22.58;;;;;;;5.31;100.00;99951.53;5079399;28;21059;-84
2024/03/03 00:26:49;;;;;;;44.53;22.33;;;;;;;5.34;100.00;99949.09;5074967;28;20417;-84
2024/03/03 00:29:22;;;;;;;45.65;22.65;;;;;;;5.32;100.00;99942.34;5074165;28;20423;-82
2024/03/03 00:31:55;;;;;;;41.00;21.67;;;;;;;5.37;100.00;99954.00;5059424;28;20425;-83
2024/03/03 00:34:25;;;;;;;42.50;21.95;;;;;;;5.42;100.00;99955.91;5070632;28;20796;-83
2024/03/03 00:36:58;;;;;;;41.88;22.02;;;;;;;5.46;100.00;99951.59;5068054;28;21097;-83
2024/03/03 00:39:26;;;;;;;42.47;21.95;;;;;;;5.43;100.00;99946.72;5065988;28;20419;-82
2024/03/03 00:41:54;;;;;;;40.80;20.70;;;;;;;5.27;100.00;99957.47;5056939;28;20468;-84
2024/03/03 00:44:23;;;;;;;45.60;21.95;;;;;;;5.51;100.00;99948.09;5080783;28;20909;-83
2024/03/03 00:46:56;;;;;;;43.13;22.15;;;;;;;5.41;100.00;99946.16;5062461;28;20430;-83
2024/03/03 00:49:30;;;;;;;44.73;21.63;;;;;;;5.40;100.00;99948.06;5058980;28;20486;-83
2024/03/03 00:52:04;;;;;;;41.58;21.33;;;;;;;5.39;100.00;99951.84;5079189;28;20426;-83
2024/03/03 00:54:37;;;;;;;42.05;21.85;;;;;;;5.32;100.00;99955.84;5073413;28;20425;-82
2024/03/03 00:57:06;;;;;;;43.57;21.03;;;;;;;5.35;100.00;99949.94;5059370;28;20443;-83
2024/03/03 00:59:39;;;;;;;42.58;20.75;;;;;;;5.31;100.00;99959.63;5075036;28;20422;-84
2024/03/03 01:02:07;;;;;;;43.43;22.13;;;;;;;5.33;100.00;99949.38;5057095;28;20422;-84
2024/03/03 01:04:42;;;;;;;45.20;22.30;;;;;;;5.27;100.00;99946.66;5074713;28;20420;-84
2024/03/03 01:07:15;;;;;;;43.08;22.20;;;;;;;5.32;100.00;99950.44;5061958;28;20433;-84
2024/03/03 01:09:48;;;;;;;44.90;22.47;;;;;;;5.20;100.00;99946.06;5072882;28;20444;-84
2024/03/03 01:12:22;;;;;;;45.70;22.52;;;;;;;5.13;100.00;99948.19;5074403;28;20911;-84
2024/03/03 01:14:55;;;;;;;43.30;22.45;;;;;;;5.10;100.00;99943.34;5077182;28;20423;-84
2024/03/03 01:17:28;;;;;;;43.30;22.48;;;;;;;5.09;100.00;99939.00;5073226;28;20421;-83
2024/03/03 01:20:05;;;;;;;43.42;22.25;;;;;;;5.08;100.00;99940.91;5079147;28;20454;-84
2024/03/03 01:22:39;;;;;;;45.63;21.80;;;;;;;5.13;100.00;99940.09;5080207;28;20426;-84
2024/03/03 01:25:08;;;;;;;45.10;22.37;;;;;;;5.06;100.00;99937.63;5057832;28;20848;-85
2024/03/03 01:27:36;;;;;;;46.40;22.85;;;;;;;5.10;100.00;99932.53;5055224;28;20436;-84
2024/03/03 01:30:10;;;;;;;46.47;22.35;;;;;;;5.07;100.00;99933.88;5065771;28;20426;-83
2024/03/03 01:32:43;;;;;;;44.88;22.50;;;;;;;5.13;100.00;99926.63;5061752;28;20421;-84
2024/03/03 01:35:13;;;;;;;47.25;23.27;;;;;;;5.15;100.00;99935.28;5060302;28;20422;-81
2024/03/03 01:37:41;;;;;;;46.35;22.83;;;;;;;5.07;100.00;99930.38;5064838;28;20429;-84
2024/03/03 01:40:14;;;;;;;46.17;23.15;;;;;;;5.17;100.00;99929.63;5073901;28;20416;-85
2024/03/03 01:42:43;;;;;;;43.55;22.23;;;;;;;5.06;100.00;99926.84;5078048;28;20414;-83
2024/03/03 01:45:22;;;;;;;52.08;23.00;;;;;;;5.09;100.00;99928.22;5058190;28;20659;-84
2024/03/03 01:47:50;;;;;;;48.93;23.57;;;;;;;5.10;100.00;99919.06;5060200;28;20435;-84
2024/03/03 01:50:21;;;;;;;42.88;21.58;;;;;;;5.07;100.00;99922.28;5061576;28;20431;-84
2024/03/03 01:52:55;;;;;;;46.90;21.87;;;;;;;5.03;100.00;99913.91;5059454;28;20512;-83
2024/03/03 01:55:29;;;;;;;47.20;22.93;;;;;;;5.11;100.00;99916.09;5060929;28;20435;-84
2024/03/03 01:58:02;;;;;;;42.67;22.27;;;;;;;5.10;100.00;99908.28;5060005;28;20438;-84
2024/03/03 02:00:36;;;;;;;44.67;22.65;;;;;;;5.10;100.00;99903.69;5060873;28;20433;-84
2024/03/03 02:03:10;;;;;;;42.28;21.48;;;;;;;5.11;100.00;99907.22;5074513;28;20431;-84
2024/03/03 02:05:45;;;;;;;42.92;21.58;;;;;;;5.09;100.00;99907.44;5060888;28;20741;-84
2024/03/03 02:08:18;;;;;;;43.35;22.58;;;;;;;5.07;100.00;99904.22;5074220;28;20423;-85
2024/03/03 02:10:52;;;;;;;45.93;22.77;;;;;;;5.02;100.00;99906.88;5063808;28;20440;-84
2024/03/03 02:13:21;;;;;;;43.55;22.25;;;;;;;5.04;100.00;99902.03;5058972;28;20430;-83
2024/03/03 02:15:54;;;;;;;42.80;22.45;;;;;;;5.04;100.00;99904.75;5057505;28;20440;-84
2024/03/03 02:18:27;;;;;;;43.88;22.17;;;;;;;5.06;100.00;99896.38;5052105;28;20454;-83
2024/03/03 02:21:02;;;;;;;42.87;21.60;;;;;;;5.09;100.00;99891.25;5064023;28;20786;-83
2024/03/03 02:23:37;;;;;;;43.67;21.50;;;;;;;5.13;100.00;99891.56;5062898;28;20421;-83
2024/03/03 02:26:11;;;;;;;45.67;21.50;;;;;;;5.29;100.00;99887.06;5052524;28;20427;-83
2024/03/03 02:28:44;;;;;;;43.33;21.13;;;;;;;5.27;100.00;99897.28;5074161;28;20420;-83
2024/03/03 02:31:12;;;;;;;42.67;21.10;;;;;;;5.26;100.00;99895.66;5070739;28;20819;-83
2024/03/03 02:33:40;;;;;;;41.80;21.08;;;;;;;5.19;100.00;99895.91;5031147;28;20434;-84
2024/03/03 02:36:09;;;;;;;41.22;21.50;;;;;;;5.15;100.00;99889.41;5067119;28;20490;-84
2024/03/03 02:38:38;;;;;;;39.50;20.92;;;;;;;5.17;100.00;99892.66;5080451;28;20634;-83
2024/03/03 02:41:12;;;;;;;41.28;21.80;;;;;;;5.12;100.00;99892.63;5054446;28;20440;-82
2024/03/03 02:43:40;;;;;;;44.17;21.70;;;;;;;5.11;100.00;99899.91;5055879;28;20414;-83
2024/03/03 02:46:13;;;;;;;38.05;20.55;;;;;;;5.09;100.00;99896.66;5075066;28;20753;-84
2024/03/03 02:48:42;;;;;;;39.47;20.63;;;;;;;5.03;100.00;99903.09;5056067;28;20430;-82
2024/03/03 02:51:15;;;;;;;42.28;21.02;;;;;;;5.03;100.00;99903.09;5073004;28;20431;-82
2024/03/03 02:53:49;;;;;;;42.95;21.83;;;;;;;5.01;100.00;99899.03;5058840;28;20422;-84
2024/03/03 02:56:23;;;;;;;43.50;21.13;;;;;;;4.99;100.00;99902.00;5065418;28;20426;-84
2024/03/03 02:58:51;;;;;;;43.13;21.17;;;;;;;5.04;100.00;99898.50;5059658;28;20434;-85
2024/03/03 03:01:24;;;;;;;40.90;20.60;;;;;;;5.11;100.00;99893.72;5067404;28;20424;-82
2024/03/03 03:03:52;;;;;;;38.20;20.17;;;;;;;5.12;100.00;99900.72;5058525;28;20767;-82
2024/03/03 03:06:26;;;;;;;38.92;19.88;;;;;;;5.15;100.00;99894.81;5067373;28;20897;-85
2024/03/03 03:09:00;;;;;;;37.85;20.05;;;;;;;4.97;100.00;99896.06;5074147;28;20434;-84
2024/03/03 03:11:36;;;;;;;43.37;21.23;;;;;;;5.08;100.00;99888.81;5057497;28;20437;-83
2024/03/03 03:14:09;;;;;;;39.13;20.80;;;;;;;5.05;100.00;99887.47;5059149;28;20431;-82
2024/03/03 03:16:42;;;;;;;40.92;21.10;;;;;;;4.99;100.00;99883.13;5054644;28;20914;-84
2024/03/03 03:19:16;;;;;;;41.83;20.55;;;;;;;5.00;100.00;99889.31;5077364;28;20418;-83
2024/03/03 03:21:49;;;;;;;44.38;21.85;;;;;;;4.94;100.00;99891.19;5060539;28;20428;-83
2024/03/03 03:24:24;;;;;;;39.35;20.30;;;;;;;5.05;100.00;99889.34;5074321;28;20422;-82
2024/03/03 03:26:57;;;;;;;42.80;21.00;;;;;;;5.17;100.00;99886.47;5062520;28;20419;-82
2024/03/03 03:29:31;;;;;;;41.22;20.92;;;;;;;5.16;100.00;99890.22;5062031;28;20431;-83
2024/03/03 03:31:59;;;;;;;45.03;21.88;;;;;;;5.27;100.00;99884.63;5079342;28;20427;-84
2024/03/03 03:34:27;;;;;;;39.00;21.25;;;;;;;5.06;100.00;99885.59;5067031;28;20436;-82
2024/03/03 03:37:00;;;;;;;40.13;20.83;;;;;;;4.91;100.00;99884.44;5078210;28;20988;-83
2024/03/03 03:39:35;;;;;;;37.93;20.37;;;;;;;4.97;100.00;99881.75;5081096;28;20444;-82
2024/03/03 03:42:08;;;;;;;42.28;22.23;;;;;;;4.88;100.00;99884.97;5077631;28;20457;-82
2024/03/03 03:44:36;;;;;;;41.83;21.73;;;;;;;4.80;100.00;99885.44;5058610;28;20914;-84
2024/03/03 03:47:04;;;;;;;43.30;21.13;;;;;;;4.79;100.00;99893.81;5053353;28;20434;-83
2024/03/03 03:49:38;;;;;;;41.47;22.05;;;;;;;4.80;100.00;99890.03;5074761;28;20421;-82
2024/03/03 03:52:07;;;;;;;44.42;21.85;;;;;;;4.79;100.00;99888.41;5074620;28;20425;-83
2024/03/03 03:54:42;;;;;;;44.97;21.77;;;;;;;4.78;100.00;99884.91;5077354;28;20422;-84
2024/03/03 03:57:15;;;;;;;44.42;22.13;;;;;;;4.80;100.00;99882.75;5076512;28;20422;-85
2024/03/03 03:59:48;;;;;;;46.53;22.70;;;;;;;4.78;100.00;99884.91;5078624;28;20433;-82
2024/03/03 04:02:16;;;;;;;46.15;22.20;;;;;;;4.77;100.00;99885.97;5071950;28;20438;-84
2024/03/03 04:04:44;;;;;;;44.70;23.25;;;;;;;4.82;100.00;99880.63;5072548;28;20450;-83
2024/03/03 04:07:18;;;;;;;47.00;22.80;;;;;;;4.76;100.00;99878.97;5077788;28;20422;-84
2024/03/03 04:09:52;;;;;;;46.15;22.00;;;;;;;4.79;100.00;99885.72;5076488;28;20431;-84
2024/03/03 04:12:25;;;;;;;44.38;23.17;;;;;;;4.75;100.00;99888.09;5072086;28;20907;-85
2024/03/03 04:14:59;;;;;;;45.70;23.20;;;;;;;4.65;100.00;99886.16;5069265;28;20435;-84
2024/03/03 04:17:27;;;;;;;43.17;21.75;;;;;;;4.64;100.00;99884.56;5053207;28;20425;-83
2024/03/03 04:19:55;;;;;;;45.70;22.05;;;;;;;4.64;100.00;99887.25;5072560;28;20429;-83
2024/03/03 04:22:23;;;;;;;48.28;23.02;;;;;;;4.63;100.00;99884.78;5055361;28;20424;-83
2024/03/03 04:24:58;;;;;;;48.17;24.20;;;;;;;4.60;100.00;99886.16;5076158;28;20417;-85
2024/03/03 04:27:26;;;;;;;46.20;23.25;;;;;;;4.62;100.00;99884.00;5072857;28;20423;-84
2024/03/03 04:29:54;;;;;;;41.53;22.27;;;;;;;4.58;100.00;99883.72;5054807;28;20867;-83
2024/03/03 04:32:27;;;;;;;46.17;22.88;;;;;;;4.76;100.00;99874.41;5057091;28;20427;-83
2024/03/03 04:34:56;;;;;;;44.17;22.45;;;;;;;4.79;100.00;99877.63;5066252;28;20422;-84
2024/03/03 04:37:24;;;;;;;50.40;23.70;;;;;;;4.91;100.00;99873.66;5070847;28;20430;-83
2024/03/03 04:39:59;;;;;;;48.13;23.55;;;;;;;4.76;100.00;99869.00;5076239;28;20426;-84
2024/03/03 04:42:27;;;;;;;47.53;23.35;;;;;;;4.77;100.00;99867.13;5072817;28;20432;-84
2024/03/03 04:44:55;;;;;;;47.80;23.83;;;;;;;4.80;100.00;99869.28;5074109;28;20476;-84
2024/03/03 04:47:23;;;;;;;49.75;24.30;;;;;;;4.74;100.00;99873.84;5053989;28;20438;-82
2024/03/03 04:49:56;;;;;;;50.35;24.60;;;;;;;4.74;100.00;99873.84;5069457;28;20488;-82
2024/03/03 04:52:30;;;;;;;53.13;24.88;;;;;;;4.74;100.00;99878.44;5076934;28;20435;-82
2024/03/03 04:55:06;;;;;;;52.25;25.52;;;;;;;4.88;100.00;99878.75;5055325;28;20477;-83
2024/03/03 04:57:40;;;;;;;53.50;25.40;;;;;;;4.80;100.00;99881.97;5060100;28;20766;-82
2024/03/03 05:00:09;;;;;;;57.65;25.58;;;;;;;4.75;100.00;99870.06;5071738;28;20448;-83
2024/03/03 05:02:43;;;;;;;55.97;25.95;;;;;;;4.74;100.00;99886.50;5072714;28;21040;-83
2024/03/03 05:05:17;;;;;;;56.03;25.67;;;;;;;4.75;100.00;99870.06;5076454;28;21231;-83
2024/03/03 05:07:50;;;;;;;53.58;25.50;;;;;;;4.77;100.00;99867.91;5075934;28;20941;-84
2024/03/03 05:10:25;;;;;;;56.53;26.05;;;;;;;4.73;100.00;99874.09;5074918;28;20419;-81
2024/03/03 05:12:53;;;;;;;54.78;25.60;;;;;;;4.71;100.00;99873.53;5056887;28;20438;-83
2024/03/03 05:15:26;;;;;;;55.53;25.63;;;;;;;4.70;100.00;99875.44;5076542;28;20437;-83
2024/03/03 05:17:59;;;;;;;54.92;25.48;;;;;;;4.73;100.00;99874.91;5058993;28;20431;-83
2024/03/03 05:20:32;;;;;;;56.92;26.02;;;;;;;4.69;100.00;99879.19;5072413;28;20450;-83
2024/03/03 05:23:01;;;;;;;58.67;26.77;;;;;;;4.76;100.00;99874.41;5073349;28;20419;-81
2024/03/03 05:25:35;;;;;;;53.95;26.42;;;;;;;4.70;100.00;99877.31;5059141;28;20425;-82
2024/03/03 05:28:08;;;;;;;54.38;26.38;;;;;;;4.69;100.00;99878.38;5074600;28;20938;-83
2024/03/03 05:30:42;;;;;;;59.67;27.08;;;;;;;4.68;100.00;99879.44;5053881;28;20429;-84
2024/03/03 05:33:15;;;;;;;58.73;27.50;;;;;;;4.74;100.00;99879.22;5058441;28;20439;-83
2024/03/03 05:35:48;;;;;;;57.50;26.98;;;;;;;4.75;100.00;99890.81;5050737;28;20462;-83
2024/03/03 05:38:21;;;;;;;61.22;26.33;;;;;;;4.69;100.00;99891.84;5071922;28;20920;-81
2024/03/03 05:40:51;;;;;;;48.10;24.90;;;;;;;4.60;100.00;99886.94;5068286;28;20423;-82
2024/03/03 05:43:24;;;;;;;55.17;26.52;;;;;;;4.57;100.00;99890.19;5069783;28;20418;-84
2024/03/03 05:45:57;;;;;;;52.85;26.00;;;;;;;4.52;100.00;99892.81;5068364;28;20420;-83
2024/03/03 05:48:31;;;;;;;53.10;26.53;;;;;;;4.44;100.00;99890.63;5069250;28;20413;-82
2024/03/03 05:51:04;;;;;;;55.72;26.50;;;;;;;4.43;100.00;99892.50;5056882;28;20440;-83
2024/03/03 05:53:38;;;;;;;56.95;26.05;;;;;;;4.41;100.00;99893.81;5073725;28;20419;-83
2024/03/03 05:56:07;;;;;;;58.08;25.77;;;;;;;4.38;100.00;99894.34;5053586;28;20431;-82
2024/03/03 05:58:36;;;;;;;54.45;26.63;;;;;;;4.37;100.00;99887.34;5055398;28;20427;-84
2024/03/03 06:01:04;;;;;;;59.43;27.37;;;;;;;4.38;100.00;99895.16;5052395;28;20443;-82
2024/03/03 06:03:32;;;;;;;59.05;27.20;;;;;;;4.42;100.00;99898.97;5051954;28;20433;-84
2024/03/03 06:06:00;;;;;;;63.65;28.33;;;;;;;4.43;100.00;99897.06;5072622;28;20422;-82
2024/03/03 06:08:34;;;;;;;63.47;29.08;;;;;;;4.45;100.00;99896.81;5057144;28;20433;-83
2024/03/03 06:11:02;;;;;;;63.55;28.58;;;;;;;4.45;100.00;99897.63;5070491;28;20427;-83
2024/03/03 06:13:37;;;;;;;65.45;29.50;;;;;;;4.47;100.00;99897.38;5064893;28;20434;-81
2024/03/03 06:16:11;;;;;;;67.10;29.38;;;;;;;4.51;100.00;99888.50;5057546;28;20424;-82
2024/03/03 06:18:39;;;;;;;69.00;30.17;;;;;;;4.57;100.00;99886.66;5075705;28;20430;-81
2024/03/03 06:21:07;;;;;;;65.25;28.80;;;;;;;4.56;100.00;99879.66;5053512;28;20415;-82
2024/03/03 06:23:41;;;;;;;70.30;29.50;;;;;;;4.71;100.00;99887.84;5055685;28;20932;-82
2024/03/03 06:26:10;;;;;;;67.43;29.45;;;;;;;4.64;100.00;99886.44;5075582;28;20414;-82
2024/03/03 06:28:45;;;;;;;66.88;30.02;;;;;;;4.61;100.00;99887.75;5071123;28;20783;-81
2024/03/03 06:31:14;;;;;;;70.45;30.23;;;;;;;4.67;100.00;99894.81;5072932;28;20419;-81
2024/03/03 06:33:47;;;;;;;73.85;31.05;;;;;;;4.69;100.00;99892.66;5057431;28;20488;-81
2024/03/03 06:36:21;;;;;;;72.90;30.75;;;;;;;4.71;100.00;99889.69;5054274;28;20426;-82
2024/03/03 06:38:50;;;;;;;79.37;32.40;;;;;;;4.72;100.00;99894.84;5075640;28;20882;-82
2024/03/03 06:41:19;;;;;;;76.95;32.80;;;;;;;4.74;100.00;99887.31;5071389;28;20419;-82
2024/03/03 06:43:48;;;;;;;78.40;31.75;;;;;;;4.74;100.00;99897.28;5072250;28;20426;-82
2024/03/03 06:46:21;;;;;;;72.47;31.48;;;;;;;4.77;100.00;99891.38;5074975;28;20756;-82
2024/03/03 06:48:55;;;;;;;78.15;30.95;;;;;;;4.78;100.00;99898.41;5058819;28;20431;-79
2024/03/03 06:51:23;;;;;;;76.88;32.33;;;;;;;4.84;100.00;99891.94;5072943;28;20410;-81
2024/03/03 06:53:52;;;;;;;77.32;32.67;;;;;;;4.86;100.00;99894.38;5055920;28;20767;-82
2024/03/03 06:56:26;;;;;;;81.45;32.53;;;;;;;4.87;100.00;99893.31;5073495;28;20434;-84
2024/03/03 06:59:01;;;;;;;81.40;33.50;;;;;;;4.99;100.00;99898.50;5071313;28;20425;-82
2024/03/03 07:01:30;;;;;;;79.78;33.35;;;;;;;5.09;100.00;99903.94;5071629;28;21862;-83
2024/03/03 07:04:18;;;;;;;72.80;32.45;;;;;;;5.37;100.00;99910.81;5059300;28;20427;-84
2024/03/03 07:06:47;;;;;;;74.45;32.03;;;;;;;5.33;100.00;99908.91;5078891;28;20884;-84
2024/03/03 07:09:17;;;;;;;76.90;33.42;;;;;;;5.37;100.00;99910.81;5078049;28;20417;-83
2024/03/03 07:11:51;;;;;;;77.72;33.25;;;;;;;5.44;100.00;99903.28;5074730;28;20415;-82
2024/03/03 07:14:26;;;;;;;70.55;32.67;;;;;;;5.42;100.00;99904.63;5055699;28;22325;-83
2024/03/03 07:16:59;;;;;;;71.35;33.22;;;;;;;5.55;100.00;99908.69;5073659;28;20463;-82
2024/03/03 07:19:32;;;;;;;72.93;32.30;;;;;;;5.63;100.00;99902.78;5072744;28;20513;-83
2024/03/03 07:22:06;;;;;;;73.07;32.60;;;;;;;5.79;100.00;99903.66;5058422;28;20430;-83
2024/03/03 07:24:34;;;;;;;77.25;33.72;;;;;;;5.77;100.00;99908.50;5072847;28;20419;-84
2024/03/03 07:27:02;;;;;;;69.10;31.27;;;;;;;5.71;100.00;99906.88;5080642;28;20426;-82
2024/03/03 07:29:31;;;;;;;72.65;32.80;;;;;;;5.71;100.00;99904.97;5069392;28;20423;-83
2024/03/03 07:32:00;;;;;;;77.57;34.20;;;;;;;5.74;100.00;99912.53;5062971;28;20897;-84
2024/03/03 07:34:33;;;;;;;72.18;33.67;;;;;;;5.83;100.00;99902.03;5083781;28;20417;-84
2024/03/03 07:37:01;;;;;;;76.47;33.40;;;;;;;5.84;100.00;99910.94;5081359;28;20907;-83
2024/03/03 07:39:34;;;;;;;71.95;32.83;;;;;;;5.89;100.00;99921.75;5064182;28;20429;-83
2024/03/03 07:42:08;;;;;;;77.22;34.38;;;;;;;5.97;100.00;99915.84;5058891;28;20431;-84
2024/03/03 07:44:42;;;;;;;73.95;34.10;;;;;;;5.99;100.00;99921.00;5059629;28;20433;-83
2024/03/03 07:47:15;;;;;;;77.63;34.60;;;;;;;5.98;100.00;99917.50;5061155;28;20431;-82
2024/03/03 07:49:49;;;;;;;74.60;34.05;;;;;;;6.05;100.00;99925.31;5070939;28;20414;-84
2024/03/03 07:52:22;;;;;;;72.57;33.13;;;;;;;6.26;100.00;99918.84;5072963;28;20425;-84
2024/03/03 07:54:50;;;;;;;73.95;33.22;;;;;;;6.28;100.00;99924.00;5054877;28;20433;-82
2024/03/03 07:57:23;;;;;;;67.65;32.72;;;;;;;6.26;100.00;99920.75;5073983;28;20422;-82
2024/03/03 07:59:58;;;;;;;66.55;32.00;;;;;;;6.32;100.00;99922.38;5071350;28;20442;-84
2024/03/03 08:02:26;;;;;;;72.18;33.08;;;;;;;6.45;100.00;99929.94;5060333;28;20418;-84
2024/03/03 08:04:56;;;;;;;70.03;32.28;;;;;;;6.48;100.00;99934.00;5060228;28;20426;-84
2024/03/03 08:07:24;;;;;;;65.67;32.27;;;;;;;6.54;100.00;99929.41;5053266;28;20433;-85
2024/03/03 08:09:53;;;;;;;68.13;32.70;;;;;;;6.57;100.00;99931.56;5053719;28;20426;-84
2024/03/03 08:12:21;;;;;;;59.53;32.25;;;;;;;6.58;100.00;99925.88;5053973;28;20431;-81
2024/03/03 08:14:49;;;;;;;63.95;32.47;;;;;;;6.71;100.00;99929.94;5073211;28;20434;-82
2024/03/03 08:17:18;;;;;;;63.25;32.42;;;;;;;6.69;100.00;99923.97;5057630;28;20434;-84
2024/03/03 08:19:52;;;;;;;65.38;31.92;;;;;;;6.76;100.00;99924.50;5073320;28;20421;-85
2024/03/03 08:22:21;;;;;;;68.53;32.28;;;;;;;6.81;100.00;99927.22;5069168;28;20419;-85
2024/03/03 08:24:49;;;;;;;63.92;31.92;;;;;;;6.88;100.00;99923.44;5056680;28;20422;-85
2024/03/03 08:27:22;;;;;;;67.80;32.63;;;;;;;6.95;100.00;99919.34;5054751;28;20433;-87
2024/03/03 08:29:55;;;;;;;63.45;32.08;;;;;;;7.00;100.00;99926.63;5070516;28;20425;-83
2024/03/03 08:32:30;;;;;;;59.15;31.42;;;;;;;7.19;100.00;99932.25;5072008;28;20780;-84
2024/03/03 08:34:58;;;;;;;63.58;31.65;;;;;;;7.09;100.00;99924.19;5053366;28;20799;-85
2024/03/03 08:37:31;;;;;;;66.10;32.30;;;;;;;7.23;100.00;99927.91;5074254;28;20441;-83
2024/03/03 08:40:00;;;;;;;61.42;31.77;;;;;;;7.30;100.00;99936.53;5056878;28;20966;-82
2024/03/03 08:42:33;;;;;;;56.00;30.77;;;;;;;7.27;100.00;99928.97;5064786;28;20434;-82
2024/03/03 08:45:01;;;;;;;57.90;30.08;;;;;;;7.51;100.00;99924.81;5069761;28;20433;-83
2024/03/03 08:47:35;;;;;;;56.42;29.77;;;;;;;7.65;100.00;99926.66;5072360;28;20431;-83
2024/03/03 08:50:10;;;;;;;56.63;30.05;;;;;;;7.68;100.00;99930.72;5058033;28;20433;-79
2024/03/03 08:52:43;;;;;;;58.60;30.20;;;;;;;7.70;100.00;99927.72;5040452;28;20432;-82
2024/03/03 08:55:16;;;;;;;57.60;30.27;;;;;;;7.81;100.00;99918.44;5054731;28;21211;-82
2024/03/03 08:57:50;;;;;;;56.40;29.42;;;;;;;7.81;100.00;99915.72;5068385;28;20425;-83
2024/03/03 09:00:19;;;;;;;55.80;30.20;;;;;;;7.82;100.00;99928.19;5073899;28;20426;-85
2024/03/03 09:02:54;;;;;;;59.10;30.45;;;;;;;7.82;100.00;99933.63;5056555;28;20438;-85
2024/03/03 09:05:22;;;;;;;57.05;29.85;;;;;;;7.93;100.00;99918.91;5071792;28;20415;-82
2024/03/03 09:07:55;;;;;;;53.17;28.77;;;;;;;8.00;100.00;99924.03;5061710;28;20425;-85
2024/03/03 09:10:23;;;;;;;56.58;29.05;;;;;;;7.79;100.00;99934.19;5049204;28;20428;-85
2024/03/03 09:12:57;;;;;;;54.70;30.13;;;;;;;7.77;100.00;99930.94;5069293;28;20914;-81
2024/03/03 09:15:30;;;;;;;58.33;29.70;;;;;;;7.82;100.00;99931.69;5051828;28;20502;-82
2024/03/03 09:18:00;;;;;;;58.78;30.58;;;;;;;7.88;100.00;99932.47;5071363;28;20428;-82
2024/03/03 09:20:33;;;;;;;58.83;31.08;;;;;;;8.02;100.00;99929.94;5073892;28;20414;-81
2024/03/03 09:23:01;;;;;;;54.43;29.37;;;;;;;8.21;100.00;99923.88;5057741;28;20524;-83
2024/03/03 09:25:35;;;;;;;55.35;29.42;;;;;;;8.30;100.00;99925.69;5068543;28;20427;-87
2024/03/03 09:28:08;;;;;;;55.33;28.58;;;;;;;8.40;100.00;99929.44;5053877;28;20963;-83
2024/03/03 09:30:36;;;;;;;53.20;29.13;;;;;;;8.40;100.00;99924.00;5057356;28;20437;-83
2024/03/03 09:33:06;;;;;;;52.33;29.65;;;;;;;8.46;100.00;99926.41;5064136;28;20465;-84
2024/03/03 09:35:39;;;;;;;52.47;27.73;;;;;;;8.50;100.00;99935.59;5070039;28;20423;-84
2024/03/03 09:38:07;;;;;;;48.22;27.88;;;;;;;8.42;100.00;99935.38;5072114;28;20423;-82
2024/03/03 09:40:44;;;;;;;52.72;28.52;;;;;;;8.51;100.00;99928.28;5064430;28;20423;-84
2024/03/03 09:43:17;;;;;;;53.03;29.25;;;;;;;8.56;100.00;99928.25;5067199;28;20476;-82
2024/03/03 09:45:48;;;;;;;50.20;28.97;;;;;;;8.76;100.00;99929.16;5066352;28;22279;-84
2024/03/03 09:48:23;;;;;;;49.80;29.63;;;;;;;8.74;100.00;99925.91;5064959;28;20432;-82
2024/03/03 09:50:58;;;;;;;49.85;28.30;;;;;;;8.90;100.00;99921.94;5050940;28;20423;-83
2024/03/03 09:53:33;;;;;;;51.35;27.63;;;;;;;8.97;100.00;99927.81;5067441;28;20427;-83
2024/03/03 09:56:08;;;;;;;50.27;27.90;;;;;;;9.01;100.00;99922.63;5067970;28;20431;-84
2024/03/03 09:58:40;;;;;;;50.08;27.75;;;;;;;9.10;100.00;99920.94;5054460;28;20435;-84
2024/03/03 10:01:10;;;;;;;49.35;27.83;;;;;;;9.23;100.00;99918.63;5051203;28;20416;-84
2024/03/03 10:03:42;;;;;;;48.83;27.30;;;;;;;9.34;100.00;99917.38;5052598;28;20431;-84
2024/03/03 10:06:20;;;;;;;46.70;27.17;;;;;;;9.42;100.00;99914.03;5075872;28;20428;-81
2024/03/03 10:08:58;;;;;;;47.97;27.60;;;;;;;9.47;100.00;99911.25;5068833;28;20522;-84
2024/03/03 10:11:33;;;;;;;48.55;27.55;;;;;;;9.58;100.00;99913.81;5055280;28;20424;-84
2024/03/03 10:14:01;;;;;;;47.38;27.27;;;;;;;9.73;100.00;99913.63;5071302;28;20771;-83
2024/03/03 10:16:33;;;;;;;47.88;27.45;;;;;;;9.64;100.00;99907.22;5074633;28;20896;-84
2024/03/03 10:19:07;;;;;;;49.97;27.93;;;;;;;9.69;100.00;99901.72;5059683;28;20432;-83
2024/03/03 10:21:41;;;;;;;50.20;28.30;;;;;;;9.96;100.00;99902.97;5049645;28;20524;-82
2024/03/03 10:24:25;;;;;;;49.75;27.55;;;;;;;9.89;100.00;99911.50;5050815;28;20430;-82
2024/03/03 10:27:00;;;;;;;49.87;28.60;;;;;;;9.83;100.00;99907.22;5056435;28;20430;-84
2024/03/03 10:29:33;;;;;;;48.63;27.52;;;;;;;9.85;100.00;99908.56;5074230;28;20423;-84
2024/03/03 10:32:09;;;;;;;45.43;27.00;;;;;;;9.84;100.00;99915.09;5074772;28;20523;-84
2024/03/03 10:34:55;;;;;;;47.83;27.10;;;;;;;9.86;100.00;99909.38;5071944;28;20457;-84
2024/03/03 10:37:29;;;;;;;46.22;27.27;;;;;;;9.95;100.00;99910.31;5071397;28;20908;-82
2024/03/03 10:39:57;;;;;;;44.53;27.20;;;;;;;10.08;100.00;99899.81;5053114;28;20427;-84
2024/03/03 10:42:32;;;;;;;48.35;28.02;;;;;;;10.00;100.00;99904.00;5056982;28;20420;-84
2024/03/03 10:45:00;;;;;;;47.83;27.67;;;;;;;10.18;100.00;99897.72;5053200;28;20786;-85
2024/03/03 10:47:28;;;;;;;53.22;28.08;;;;;;;10.17;100.00;99903.47;5069508;28;20434;-84
2024/03/03 10:50:05;;;;;;;49.40;28.43;;;;;;;10.29;100.00;99901.09;5055352;28;20501;-83
2024/03/03 10:52:39;;;;;;;50.17;27.75;;;;;;;10.27;100.00;99903.28;5058652;28;20871;-83
2024/03/03 10:55:14;;;;;;;47.83;27.52;;;;;;;10.29;100.00;99909.25;5076581;28;20426;-84
2024/03/03 10:57:48;;;;;;;46.97;27.45;;;;;;;10.28;100.00;99904.13;5060851;28;20435;-84
2024/03/03 11:00:24;;;;;;;46.97;28.10;;;;;;;10.50;100.00;99901.59;5059547;28;20428;-83
2024/03/03 11:02:59;;;;;;;46.15;28.60;;;;;;;10.38;100.00;99887.66;5055600;28;20426;-84
2024/03/03 11:05:33;;;;;;;48.42;27.38;;;;;;;10.36;100.00;99895.31;5064997;28;20449;-82
2024/03/03 11:08:10;;;;;;;50.25;27.52;;;;;;;10.39;100.00;99894.72;5072160;28;20448;-84
2024/03/03 11:10:39;;;;;;;46.63;26.83;;;;;;;10.30;100.00;99891.84;5053305;28;20429;-82
2024/03/03 11:13:15;;;;;;;50.08;28.55;;;;;;;10.68;100.00;99897.19;5048431;28;20731;-83
2024/03/03 11:15:51;;;;;;;50.85;27.88;;;;;;;10.78;100.00;99898.13;5048353;28;20446;-83
2024/03/03 11:18:25;;;;;;;46.30;27.30;;;;;;;10.59;100.00;99895.47;5061411;28;20450;-83
2024/03/03 11:21:07;;;;;;;44.03;26.98;;;;;;;10.57;100.00;99905.84;5043686;28;20419;-82
2024/03/03 11:23:48;;;;;;;47.20;26.60;;;;;;;10.38;100.00;99891.19;5048175;28;20445;-83
2024/03/03 11:26:26;;;;;;;49.45;26.88;;;;;;;10.62;100.00;99894.84;5064900;28;20440;-82
2024/03/03 11:29:01;;;;;;;44.63;25.92;;;;;;;11.04;100.00;99896.53;5044093;28;20422;-83
2024/03/03 11:31:35;;;;;;;46.03;27.65;;;;;;;11.04;100.00;99890.28;5041264;28;20430;-84
2024/03/03 11:34:09;;;;;;;44.88;26.58;;;;;;;11.06;100.00;99891.59;5041573;28;20435;-82
2024/03/03 11:36:44;;;;;;;49.15;27.73;;;;;;;11.26;100.00;99884.13;5062319;28;20827;-84
2024/03/03 11:39:18;;;;;;;48.23;28.90;;;;;;;11.43;100.00;99880.75;5055813;28;20428;-82